| Date | Time | Temp. (oF) | Dew Point (oF) | Rel. Hum. (%) | Press. (in.) | Wind Dir. (deg.) | Wind Speed (mph) | Hourly Rainfall (i n.) |
|
|---|---|---|---|---|---|---|---|---|---|
| 1 | 10/17 | 24:00 | 56 | 52 | 87 | 30.33 | 70 | 0 | 0.00 |
| 2 | 10/16 | 23:00 | 57 | 53 | 87 | 30.35 | 70 | 0 | 0.00 |
| 3 | 10/16 | 22:00 | 59 | 54 | 86 | 30.36 | 70 | 0 | 0.00 |
| 4 | 10/16 | 21:00 | 60 | 55 | 84 | 30.37 | 70 | 0 | 0.00 |
| 5 | 10/16 | 20:00 | 61 | 54 | 79 | 30.39 | 70 | 0 | 0.00 |
| 6 | 10/16 | 19:00 | 64 | 56 | 76 | 30.39 | 70 | 0 | 0.00 |
| 7 | 10/16 | 18:00 | 68 | 56 | 66 | 30.42 | 50 | 1 | 0.00 |
| 8 | 10/16 | 17:00 | 69 | 56 | 64 | 30.42 | 150 | 6 | 0.00 |
| 9 | 10/16 | 16:00 | 69 | 56 | 65 | 30.42 | 160 | 4 | 0.00 |
| 10 | 10/16 | 15:00 | 69 | 56 | 65 | 30.42 | 130 | 7 | 0.00 |
| 11 | 10/16 | 14:00 | 68 | 55 | 64 | 30.44 | 140 | 9 | 0.00 |
| 12 | 10/16 | 13:00 | 67 | 58 | 73 | 30.41 | 290 | 2 | 0.00 |
| 13 | 10/16 | 12:00 | 63 | 55 | 77 | 30.41 | 130 | 1 | 0.00 |
| 14 | 10/16 | 11:00 | 59 | 53 | 83 | 30.42 | 150 | 2 | 0.00 |
| 15 | 10/16 | 10:00 | 53 | 49 | 87 | 30.42 | 150 | 1 | 0.00 |
| 16 | 10/16 | 09:00 | 46 | 41 | 84 | 30.42 | 150 | 0 | 0.00 |
| 17 | 10/16 | 08:00 | 44 | 38 | 82 | 30.40 | 150 | 0 | 0.00 |
| 18 | 10/16 | 07:00 | 43 | 37 | 82 | 30.40 | 150 | 0 | 0.00 |
| 19 | 10/16 | 06:00 | 44 | 38 | 82 | 30.40 | 150 | 0 | 0.00 |
| 20 | 10/16 | 05:00 | 44 | 38 | 82 | 30.45 | 150 | 0 | 0.00 |
| 21 | 10/16 | 04:00 | 44 | 38 | 81 | 30.40 | 150 | 0 | 0.00 |
| 22 | 10/16 | 03:00 | 45 | 39 | 81 | 30.42 | 150 | 0 | 0.00 |
| 23 | 10/16 | 02:00 | 45 | 39 | 81 | 30.43 | 150 | 0 | 0.00 |
| 24 | 10/16 | 01:00 | 46 | 40 | 80 | 30.42 | 150 | 0 | 0.00 |